createdAt,value
2022-12-22T00:00:05.622Z,8.83
2022-12-22T00:05:20.587Z,8.79
2022-12-22T00:10:35.804Z,8.82
2022-12-22T00:15:53.685Z,8.85
2022-12-22T00:21:09.024Z,8.81
2022-12-22T00:26:23.774Z,8.79
2022-12-22T00:31:39.544Z,8.79
2022-12-22T00:36:55.433Z,8.64
2022-12-22T00:42:10.469Z,8.71
2022-12-22T00:47:31.399Z,8.64
2022-12-22T00:52:46.591Z,8.64
2022-12-22T00:58:01.875Z,8.59
2022-12-22T01:03:17.358Z,8.62
2022-12-22T01:08:32.728Z,8.61
2022-12-22T01:13:47.819Z,8.61
2022-12-22T01:19:02.633Z,8.60
2022-12-22T01:24:17.770Z,8.63
2022-12-22T01:29:32.850Z,8.59
2022-12-22T01:34:47.896Z,8.57
2022-12-22T01:40:03.447Z,8.59
2022-12-22T01:45:45.482Z,8.63
2022-12-22T01:51:01.683Z,8.64
2022-12-22T01:56:17.945Z,8.62
2022-12-22T02:01:36.326Z,8.64
2022-12-22T02:07:00.199Z,8.67
2022-12-22T02:12:27.065Z,8.67
2022-12-22T02:17:47.029Z,8.70
2022-12-22T02:23:29.904Z,8.63
2022-12-22T02:28:45.047Z,8.67
2022-12-22T02:34:01.040Z,8.66
2022-12-22T02:39:22.134Z,8.71
2022-12-22T02:45:18.960Z,8.67
2022-12-22T02:50:51.482Z,8.66
2022-12-22T02:56:06.879Z,8.69
2022-12-22T03:01:23.202Z,8.63
2022-12-22T03:06:38.648Z,8.68
2022-12-22T03:11:53.433Z,8.71
2022-12-22T03:17:08.399Z,8.71
2022-12-22T03:22:23.323Z,8.70
2022-12-22T03:27:19.911Z,8.74
2022-12-22T03:32:16.400Z,8.71
2022-12-22T03:37:12.852Z,8.71
2022-12-22T03:42:31.269Z,8.72
2022-12-22T03:47:27.778Z,8.76
2022-12-22T03:52:24.402Z,8.72
2022-12-22T03:57:20.972Z,8.72
2022-12-22T04:02:17.571Z,8.74
2022-12-22T04:07:14.159Z,8.78
2022-12-22T04:12:28.981Z,8.77
2022-12-22T04:17:25.422Z,8.76
2022-12-22T04:22:21.909Z,8.75
2022-12-22T04:27:18.408Z,8.79
2022-12-22T04:32:14.956Z,8.78
2022-12-22T04:37:17.132Z,8.76
2022-12-22T04:42:14.067Z,8.86
2022-12-22T04:47:10.543Z,8.85
2022-12-22T04:52:07.179Z,8.82
2022-12-22T04:57:03.667Z,8.86
2022-12-22T05:02:00.285Z,8.86
2022-12-22T05:06:56.835Z,8.85
2022-12-22T05:11:53.297Z,8.88
2022-12-22T05:16:50.068Z,8.89
2022-12-22T05:21:46.616Z,8.89
2022-12-22T05:26:43.256Z,8.90
2022-12-22T05:31:46.741Z,8.94
2022-12-22T05:36:43.709Z,8.96
2022-12-22T05:41:40.294Z,8.94
2022-12-22T05:46:36.899Z,8.96
2022-12-22T05:51:35.317Z,8.97
2022-12-22T05:56:31.826Z,9.00
2022-12-22T06:01:28.359Z,8.97
2022-12-22T06:06:24.818Z,9.00
2022-12-22T06:11:21.775Z,9.00
2022-12-22T06:16:18.372Z,8.98
2022-12-22T06:21:14.835Z,9.05
2022-12-22T06:26:11.286Z,9.07
2022-12-22T06:31:07.741Z,9.08
2022-12-22T06:36:08.094Z,9.09
2022-12-22T06:41:04.554Z,9.09
2022-12-22T06:46:01.191Z,9.04
2022-12-22T06:50:59.590Z,9.12
2022-12-22T06:55:58.160Z,9.10
2022-12-22T07:00:56.369Z,9.16
2022-12-22T07:05:52.842Z,9.18
2022-12-22T07:10:58.443Z,9.22
2022-12-22T07:16:07.278Z,9.14
2022-12-22T07:21:26.415Z,9.24
2022-12-22T08:44:25.720Z,9.33
2022-12-22T08:54:34.168Z,9.36
2022-12-22T08:59:30.642Z,9.38
2022-12-22T09:56:45.387Z,9.70
2022-12-22T10:07:02.553Z,9.70
2022-12-22T10:33:11.791Z,9.82
2022-12-22T10:38:26.594Z,9.83
2022-12-22T10:43:28.410Z,9.81
2022-12-22T10:48:30.523Z,9.79
2022-12-22T10:53:51.698Z,9.80
2022-12-22T10:59:20.978Z,9.81
2022-12-22T11:04:18.550Z,9.84
2022-12-22T11:09:33.203Z,9.85
2022-12-22T11:14:57.197Z,9.93
2022-12-22T11:20:02.510Z,10.03
2022-12-22T11:25:26.791Z,10.06
2022-12-22T11:31:06.744Z,10.03
2022-12-22T11:36:06.244Z,10.00
2022-12-22T11:41:15.806Z,10.02
2022-12-22T11:46:23.574Z,9.93
2022-12-22T11:51:27.932Z,9.86
2022-12-22T11:56:55.245Z,9.88
2022-12-22T12:02:18.680Z,9.97
2022-12-22T12:07:32.290Z,10.08
2022-12-22T12:12:42.740Z,10.10
2022-12-22T12:17:58.104Z,10.07
2022-12-22T12:23:17.850Z,9.89
2022-12-22T12:28:22.236Z,9.74
2022-12-22T12:33:37.105Z,9.70
2022-12-22T12:44:01.131Z,9.46
2022-12-22T12:48:57.739Z,9.34
2022-12-22T12:54:42.690Z,9.39
2022-12-22T12:59:42.077Z,9.37
2022-12-22T13:05:12.885Z,9.37
2022-12-22T13:10:23.197Z,9.32
2022-12-22T13:15:28.317Z,9.47
2022-12-22T13:20:33.703Z,9.54
2022-12-22T13:25:53.758Z,9.61
2022-12-22T13:30:53.709Z,9.62
2022-12-22T13:35:56.512Z,9.61
2022-12-22T13:40:55.135Z,9.57
2022-12-22T13:45:56.893Z,9.56
2022-12-22T13:51:02.555Z,9.63
2022-12-22T13:55:59.248Z,9.63
2022-12-22T14:01:25.209Z,9.63
2022-12-22T14:06:29.379Z,9.64
2022-12-22T14:11:25.995Z,9.62
2022-12-22T14:16:24.005Z,9.58
2022-12-22T14:21:20.696Z,9.59
2022-12-22T14:26:25.883Z,9.57
2022-12-22T14:31:22.390Z,9.49
2022-12-22T14:36:24.684Z,9.49
2022-12-22T14:41:42.758Z,9.44
2022-12-22T14:46:39.519Z,9.33
2022-12-22T14:51:36.039Z,9.17
2022-12-22T14:56:32.544Z,9.14
2022-12-22T15:01:29.163Z,9.06
2022-12-22T15:06:28.427Z,9.10
2022-12-22T15:11:25.123Z,9.05
2022-12-22T15:16:22.815Z,8.91
2022-12-22T15:21:19.764Z,8.83
2022-12-22T15:26:16.768Z,8.83
2022-12-22T15:31:15.398Z,8.78
2022-12-22T15:36:13.688Z,8.77
2022-12-22T15:41:10.277Z,8.74
2022-12-22T15:46:07.255Z,8.70
2022-12-22T15:51:06.315Z,8.67
2022-12-22T15:56:03.230Z,8.69
2022-12-22T16:00:59.647Z,8.66
2022-12-22T16:05:56.001Z,8.65
2022-12-22T16:10:52.378Z,8.71
2022-12-22T16:15:48.787Z,8.74
2022-12-22T16:20:45.142Z,8.73
2022-12-22T16:25:42.521Z,8.72
2022-12-22T16:30:39.823Z,8.68
2022-12-22T16:35:36.246Z,8.69
2022-12-22T16:40:33.378Z,8.71
2022-12-22T16:45:30.067Z,8.74
2022-12-22T16:50:32.402Z,8.74
2022-12-22T16:55:28.823Z,8.75
2022-12-22T17:00:26.486Z,8.75
2022-12-22T17:05:26.878Z,8.77
2022-12-22T17:10:23.518Z,8.81
2022-12-22T17:15:21.373Z,8.82
2022-12-22T17:20:18.365Z,8.84
2022-12-22T17:25:16.365Z,8.86
2022-12-22T17:30:18.326Z,8.86
2022-12-22T17:35:15.914Z,8.89
2022-12-22T17:40:16.486Z,8.90
2022-12-22T17:45:13.866Z,8.88
2022-12-22T17:50:14.156Z,8.90
2022-12-22T17:56:01.367Z,8.92
2022-12-22T18:00:39.452Z,8.91
2022-12-22T18:05:37.719Z,8.93
2022-12-22T18:10:34.865Z,8.90
2022-12-22T18:15:33.883Z,8.87
2022-12-22T18:20:30.148Z,8.81
2022-12-22T18:25:32.339Z,8.78
2022-12-22T18:30:29.472Z,8.73
2022-12-22T18:35:26.672Z,8.72
2022-12-22T18:40:28.028Z,8.68
2022-12-22T18:45:28.178Z,8.61
2022-12-22T18:50:25.486Z,8.60
2022-12-22T18:55:22.976Z,8.54
2022-12-22T19:00:23.385Z,8.50
2022-12-22T19:05:21.140Z,8.49
2022-12-22T19:10:18.478Z,8.51
2022-12-22T19:15:40.824Z,8.55
2022-12-22T19:20:37.102Z,8.60
2022-12-22T19:25:33.423Z,8.64
2022-12-22T19:30:29.721Z,8.69
2022-12-22T19:35:26.057Z,8.69
2022-12-22T19:40:23.496Z,8.69
2022-12-22T19:45:22.183Z,8.72
2022-12-22T19:50:25.457Z,8.73
2022-12-22T19:55:21.893Z,8.74
2022-12-22T20:00:18.281Z,8.74
2022-12-22T20:05:23.496Z,8.72
2022-12-22T20:10:20.836Z,8.72
2022-12-22T20:15:18.439Z,8.74
2022-12-22T20:20:18.916Z,8.74
2022-12-22T20:25:18.710Z,8.75
2022-12-22T20:30:19.823Z,8.78
2022-12-22T20:35:16.282Z,8.80
2022-12-22T20:40:30.776Z,8.80
2022-12-22T20:45:28.110Z,8.84
2022-12-22T20:50:26.051Z,8.84
2022-12-22T20:55:23.597Z,8.86
2022-12-22T21:00:21.337Z,8.85
2022-12-22T21:05:17.773Z,8.86
2022-12-22T21:10:18.000Z,8.84
2022-12-22T21:15:27.953Z,8.83
2022-12-22T21:20:25.592Z,8.81
2022-12-22T21:25:21.995Z,8.83
2022-12-22T21:30:30.030Z,8.82
2022-12-22T21:35:27.860Z,8.83
2022-12-22T21:40:25.211Z,8.84
2022-12-22T21:45:22.857Z,8.83
2022-12-22T21:50:25.873Z,8.82
2022-12-22T21:55:30.411Z,8.83
2022-12-22T22:00:27.328Z,8.81
2022-12-22T22:05:28.012Z,8.80
2022-12-22T22:10:25.207Z,8.79
2022-12-22T22:15:22.408Z,8.74
2022-12-22T22:20:20.101Z,8.65
2022-12-22T22:25:16.930Z,8.67
2022-12-22T22:30:16.926Z,8.65
2022-12-22T22:35:13.578Z,8.64
2022-12-22T22:40:11.518Z,8.58
2022-12-22T22:45:08.126Z,8.50
2022-12-22T22:50:06.666Z,8.46
2022-12-22T22:55:03.046Z,8.44
2022-12-22T23:00:01.469Z,8.42
2022-12-22T23:04:57.821Z,8.38
2022-12-22T23:09:54.090Z,8.36
2022-12-22T23:14:50.396Z,8.35
2022-12-22T23:19:46.661Z,8.36
2022-12-22T23:24:42.922Z,8.33
2022-12-22T23:29:39.447Z,8.33
2022-12-22T23:34:35.728Z,8.32
2022-12-22T23:39:31.998Z,8.31
2022-12-22T23:44:28.372Z,8.27
2022-12-22T23:49:24.681Z,8.26
2022-12-22T23:54:20.971Z,8.26
2022-12-22T23:59:17.337Z,8.26
